createdAt,value
2018-07-31T00:01:56.514Z,22.08
2018-07-31T00:04:26.707Z,22.03
2018-07-31T00:06:56.377Z,22.04
2018-07-31T00:09:26.164Z,21.98
2018-07-31T00:11:55.901Z,22.06
2018-07-31T00:14:25.586Z,22.03
2018-07-31T00:16:55.348Z,22.02
2018-07-31T00:19:25.046Z,22.19
2018-07-31T00:21:54.687Z,22.46
2018-07-31T00:24:24.337Z,22.39
2018-07-31T00:26:54.039Z,22.62
2018-07-31T00:29:23.697Z,22.68
2018-07-31T00:31:53.461Z,22.73
2018-07-31T00:34:23.108Z,22.63
2018-07-31T00:36:52.880Z,22.69
2018-07-31T00:39:22.778Z,22.65
2018-07-31T00:41:52.686Z,22.71
2018-07-31T00:44:22.421Z,22.61
2018-07-31T00:46:52.146Z,22.40
2018-07-31T00:49:21.842Z,22.38
2018-07-31T00:51:51.556Z,22.39
2018-07-31T00:54:21.241Z,22.29
2018-07-31T00:56:50.932Z,22.14
2018-07-31T00:59:20.593Z,22.03
2018-07-31T01:01:50.337Z,21.95
2018-07-31T01:04:20.009Z,22.02
2018-07-31T01:06:49.636Z,22.10
2018-07-31T01:09:19.341Z,21.92
2018-07-31T01:11:48.973Z,21.86
2018-07-31T01:14:18.695Z,21.90
2018-07-31T01:16:48.328Z,21.94
2018-07-31T01:19:18.038Z,21.87
2018-07-31T01:21:47.351Z,21.73
2018-07-31T01:24:17.158Z,21.59
2018-07-31T01:26:46.500Z,21.54
2018-07-31T01:29:16.235Z,21.51
2018-07-31T01:31:46.000Z,21.41
2018-07-31T01:34:15.800Z,21.38
2018-07-31T01:36:45.599Z,21.31
2018-07-31T01:39:15.337Z,21.31
2018-07-31T01:41:45.301Z,21.23
2018-07-31T01:44:14.947Z,21.15
2018-07-31T01:46:44.612Z,21.04
2018-07-31T01:49:14.311Z,20.93
2018-07-31T01:51:44.132Z,20.90
2018-07-31T01:54:13.913Z,20.92
2018-07-31T01:56:43.897Z,20.92
2018-07-31T01:59:13.586Z,20.85
2018-07-31T02:01:43.389Z,20.87
2018-07-31T02:04:12.705Z,20.79
2018-07-31T02:06:42.385Z,20.78
2018-07-31T02:09:12.145Z,20.79
2018-07-31T02:11:41.804Z,20.74
2018-07-31T02:14:11.504Z,20.64
2018-07-31T02:16:41.220Z,20.65
2018-07-31T02:19:10.945Z,20.61
2018-07-31T02:21:40.713Z,20.57
2018-07-31T02:24:10.322Z,20.56
2018-07-31T02:26:39.995Z,20.53
2018-07-31T02:29:09.642Z,20.53
2018-07-31T02:31:39.289Z,20.59
2018-07-31T02:34:09.045Z,20.60
2018-07-31T02:36:38.809Z,20.58
2018-07-31T02:39:09.474Z,20.55
2018-07-31T02:41:39.149Z,20.48
2018-07-31T02:44:08.816Z,20.42
2018-07-31T02:46:38.551Z,20.35
2018-07-31T02:49:08.295Z,20.30
2018-07-31T02:51:38.093Z,20.33
2018-07-31T02:54:07.758Z,20.38
2018-07-31T02:56:37.378Z,20.29
2018-07-31T02:59:07.162Z,20.24
2018-07-31T03:01:37.339Z,20.13
2018-07-31T03:04:07.190Z,20.06
2018-07-31T03:06:36.995Z,20.01
2018-07-31T03:09:09.145Z,20.02
2018-07-31T03:11:38.860Z,20.05
2018-07-31T03:14:08.574Z,20.03
2018-07-31T03:16:38.244Z,20.01
2018-07-31T03:19:07.913Z,19.90
2018-07-31T03:21:37.585Z,19.88
2018-07-31T03:24:07.505Z,19.79
2018-07-31T03:26:37.214Z,19.89
2018-07-31T03:29:07.118Z,19.85
2018-07-31T03:31:38.479Z,19.86
2018-07-31T03:34:08.230Z,19.73
2018-07-31T03:36:37.853Z,19.71
2018-07-31T03:39:09.546Z,19.67
2018-07-31T03:41:39.394Z,19.64
2018-07-31T03:44:09.361Z,19.68
2018-07-31T03:46:38.998Z,19.74
2018-07-31T03:49:08.669Z,19.71
2018-07-31T03:51:38.306Z,19.68
2018-07-31T03:54:08.169Z,19.64
2018-07-31T03:56:37.900Z,19.60
2018-07-31T03:59:07.594Z,19.56
2018-07-31T04:01:37.386Z,19.50
2018-07-31T04:04:07.202Z,19.43
2018-07-31T04:06:36.904Z,19.42
2018-07-31T04:09:11.275Z,19.46
2018-07-31T04:11:41.224Z,19.48
2018-07-31T04:14:11.223Z,19.54
2018-07-31T04:16:41.032Z,19.65
2018-07-31T04:19:10.760Z,19.72
2018-07-31T04:21:40.419Z,19.86
2018-07-31T04:24:10.121Z,19.91
2018-07-31T04:26:39.781Z,19.95
2018-07-31T04:29:09.528Z,19.99
2018-07-31T04:31:39.429Z,20.00
2018-07-31T04:34:09.105Z,20.03
2018-07-31T04:36:38.803Z,20.10
2018-07-31T04:39:11.456Z,20.17
2018-07-31T04:41:41.227Z,20.27
2018-07-31T04:44:10.981Z,20.34
2018-07-31T04:46:41.000Z,20.32
2018-07-31T04:49:10.769Z,20.32
2018-07-31T04:51:40.131Z,20.28
2018-07-31T04:54:09.980Z,20.30
2018-07-31T04:56:39.717Z,20.38
2018-07-31T04:59:09.639Z,20.34
2018-07-31T05:01:40.373Z,20.31
2018-07-31T05:04:10.062Z,20.31
2018-07-31T05:06:39.976Z,20.32
2018-07-31T05:09:11.167Z,20.30
2018-07-31T05:11:41.092Z,20.31
2018-07-31T05:14:10.807Z,20.24
2018-07-31T05:16:40.470Z,20.21
2018-07-31T05:19:10.132Z,20.13
2018-07-31T05:21:39.973Z,20.05
2018-07-31T05:24:09.666Z,19.99
2018-07-31T05:26:39.457Z,19.95
2018-07-31T05:29:09.125Z,19.94
2018-07-31T05:31:39.461Z,19.93
2018-07-31T05:34:09.192Z,19.99
2018-07-31T05:36:38.934Z,20.07
2018-07-31T05:39:11.592Z,20.26
2018-07-31T05:41:41.304Z,20.55
2018-07-31T05:44:11.041Z,20.91
2018-07-31T05:46:40.726Z,21.20
2018-07-31T05:49:10.240Z,21.52
2018-07-31T05:51:39.885Z,21.88
2018-07-31T05:54:09.635Z,22.29
2018-07-31T05:56:40.261Z,22.88
2018-07-31T05:59:10.180Z,23.35
2018-07-31T06:01:39.989Z,23.53
2018-07-31T06:04:09.754Z,23.94
2018-07-31T06:06:39.480Z,24.06
2018-07-31T06:09:10.262Z,24.31
2018-07-31T06:11:40.181Z,24.50
2018-07-31T06:14:10.441Z,24.49
2018-07-31T06:16:40.260Z,24.94
2018-07-31T06:19:10.213Z,24.94
2018-07-31T06:21:39.929Z,24.97
2018-07-31T06:24:09.662Z,25.07
2018-07-31T06:26:39.349Z,24.93
2018-07-31T06:29:09.152Z,25.06
2018-07-31T06:31:39.478Z,25.03
2018-07-31T06:34:10.098Z,25.25
2018-07-31T06:36:42.701Z,25.32
2018-07-31T06:39:12.766Z,25.49
2018-07-31T06:41:45.977Z,25.46
2018-07-31T06:44:16.641Z,25.58
2018-07-31T06:46:46.460Z,25.83
2018-07-31T06:49:16.177Z,25.69
2018-07-31T06:51:45.995Z,25.81
2018-07-31T06:54:15.725Z,26.36
2018-07-31T06:56:45.469Z,26.54
2018-07-31T06:59:15.093Z,26.78
2018-07-31T07:01:44.858Z,27.65
2018-07-31T07:04:14.565Z,28.37
2018-07-31T07:06:44.264Z,28.60
2018-07-31T07:09:13.968Z,28.27
2018-07-31T07:11:43.709Z,28.35
2018-07-31T07:14:13.417Z,28.11
2018-07-31T07:16:43.168Z,29.11
2018-07-31T07:19:12.837Z,29.33
2018-07-31T07:21:42.547Z,29.24
2018-07-31T07:24:12.202Z,29.22
2018-07-31T07:26:41.895Z,28.68
2018-07-31T07:29:11.642Z,29.11
2018-07-31T07:31:41.349Z,28.85
2018-07-31T07:34:11.215Z,28.55
2018-07-31T07:36:40.886Z,28.78
2018-07-31T07:39:12.609Z,28.82
2018-07-31T07:41:42.574Z,28.60
2018-07-31T07:44:12.512Z,29.08
2018-07-31T07:46:42.383Z,29.37
2018-07-31T07:49:12.179Z,29.42
2018-07-31T07:51:41.999Z,30.81
2018-07-31T07:54:11.715Z,31.66
2018-07-31T07:56:41.333Z,31.51
2018-07-31T07:59:11.163Z,32.71
2018-07-31T08:01:41.172Z,33.32
2018-07-31T08:04:11.061Z,33.32
2018-07-31T08:06:40.773Z,33.15
2018-07-31T08:09:10.985Z,34.22
2018-07-31T08:11:40.927Z,34.29
2018-07-31T08:14:10.897Z,34.54
2018-07-31T08:16:40.585Z,34.70
2018-07-31T08:19:10.523Z,34.16
2018-07-31T08:21:40.318Z,34.13
2018-07-31T08:24:10.237Z,33.50
2018-07-31T08:26:40.114Z,34.54
2018-07-31T08:29:09.839Z,32.91
2018-07-31T08:31:39.643Z,32.26
2018-07-31T08:34:09.477Z,32.25
2018-07-31T08:36:39.135Z,33.80
2018-07-31T08:39:10.676Z,33.82
2018-07-31T08:41:40.399Z,34.33
2018-07-31T08:44:10.098Z,35.57
2018-07-31T08:46:39.790Z,35.00
2018-07-31T08:49:09.545Z,36.12
2018-07-31T08:51:39.390Z,37.75
2018-07-31T08:54:09.091Z,38.30
2018-07-31T08:56:38.752Z,36.30
2018-07-31T08:59:08.472Z,36.26
2018-07-31T09:01:38.333Z,35.80
2018-07-31T09:04:08.229Z,36.21
2018-07-31T09:06:37.958Z,36.21
2018-07-31T09:09:09.457Z,34.67
2018-07-31T09:11:39.342Z,36.92
2018-07-31T09:14:09.795Z,37.40
2018-07-31T09:16:39.481Z,35.97
2018-07-31T09:19:09.390Z,37.52
2018-07-31T09:21:39.125Z,38.70
2018-07-31T09:24:08.980Z,38.25
2018-07-31T09:26:38.623Z,38.24
2018-07-31T09:29:08.304Z,39.14
2018-07-31T09:31:38.353Z,37.70
2018-07-31T09:34:08.099Z,38.33
2018-07-31T09:36:37.894Z,37.26
2018-07-31T09:39:11.062Z,39.70
2018-07-31T09:41:41.087Z,41.04
2018-07-31T09:44:10.930Z,39.40
2018-07-31T09:46:40.673Z,39.54
2018-07-31T09:49:10.418Z,38.47
2018-07-31T09:51:40.216Z,37.15
2018-07-31T09:54:10.156Z,35.95
2018-07-31T09:56:39.883Z,35.96
2018-07-31T09:59:09.609Z,37.34
2018-07-31T10:01:39.317Z,37.74
2018-07-31T10:04:09.156Z,37.31
2018-07-31T10:06:38.971Z,36.70
2018-07-31T10:09:10.762Z,35.36
2018-07-31T10:11:40.573Z,35.52
2018-07-31T10:14:09.934Z,36.13
2018-07-31T10:16:39.986Z,36.45
2018-07-31T10:19:09.703Z,36.60
2018-07-31T10:21:39.380Z,38.83
2018-07-31T10:24:09.276Z,39.78
2018-07-31T10:26:39.097Z,38.01
2018-07-31T10:29:08.753Z,39.47
2018-07-31T10:31:38.582Z,39.90
2018-07-31T10:34:08.410Z,38.88
2018-07-31T10:36:38.038Z,40.56
2018-07-31T10:39:09.306Z,40.03
2018-07-31T10:41:39.098Z,40.07
2018-07-31T10:44:08.900Z,39.90
2018-07-31T10:46:38.759Z,39.65
2018-07-31T10:49:08.536Z,38.59
2018-07-31T10:51:38.327Z,36.97
2018-07-31T10:54:08.097Z,38.34
2018-07-31T10:56:37.788Z,39.05
2018-07-31T10:59:07.580Z,39.61
2018-07-31T11:01:38.758Z,39.13
2018-07-31T11:04:08.709Z,38.71
2018-07-31T11:06:38.458Z,38.56
2018-07-31T11:09:10.581Z,38.71
2018-07-31T11:11:40.869Z,38.57
2018-07-31T11:14:10.889Z,39.22
2018-07-31T11:16:40.574Z,38.40
2018-07-31T11:19:10.260Z,37.76
2018-07-31T11:21:40.000Z,37.25
2018-07-31T11:24:09.752Z,37.79
2018-07-31T11:26:39.505Z,38.82
2018-07-31T11:29:09.319Z,39.92
2018-07-31T11:31:39.514Z,39.54
2018-07-31T11:34:09.254Z,39.97
2018-07-31T11:36:39.082Z,40.41
2018-07-31T11:39:11.251Z,40.41
2018-07-31T11:41:41.199Z,39.74
2018-07-31T11:44:10.998Z,38.84
2018-07-31T11:46:40.777Z,38.84
2018-07-31T11:49:10.687Z,38.33
2018-07-31T11:51:40.482Z,38.78
2018-07-31T11:54:10.146Z,38.12
2018-07-31T11:56:40.104Z,37.38
2018-07-31T11:59:09.951Z,37.06
2018-07-31T12:01:39.694Z,37.90
2018-07-31T12:04:10.374Z,38.46
2018-07-31T12:06:40.083Z,38.15
2018-07-31T12:09:12.812Z,37.59
2018-07-31T12:11:43.821Z,37.40
2018-07-31T12:14:14.254Z,37.28
2018-07-31T12:16:44.058Z,37.50
2018-07-31T12:19:13.818Z,37.62
2018-07-31T12:21:46.388Z,37.53
2018-07-31T12:24:16.256Z,37.18
2018-07-31T12:26:46.135Z,37.99
2018-07-31T12:29:15.833Z,37.07
2018-07-31T12:31:45.589Z,35.61
2018-07-31T12:34:15.308Z,35.56
2018-07-31T12:36:45.054Z,37.18
2018-07-31T12:39:14.847Z,38.09
2018-07-31T12:41:44.523Z,37.91
2018-07-31T12:44:14.268Z,38.23
2018-07-31T12:46:49.654Z,38.62
2018-07-31T12:49:19.482Z,38.92
2018-07-31T12:51:49.450Z,37.88
2018-07-31T12:54:19.373Z,38.53
2018-07-31T12:56:49.237Z,38.94
2018-07-31T12:59:19.086Z,39.07
2018-07-31T13:01:48.847Z,37.14
2018-07-31T13:04:18.588Z,38.03
2018-07-31T13:06:48.515Z,37.67
2018-07-31T13:09:18.407Z,38.44
2018-07-31T13:11:48.092Z,38.54
2018-07-31T13:14:17.753Z,37.55
2018-07-31T13:16:47.465Z,37.41
2018-07-31T13:19:17.278Z,37.41
2018-07-31T13:21:46.955Z,36.14
2018-07-31T13:24:16.774Z,34.81
2018-07-31T13:26:46.507Z,34.39
2018-07-31T13:29:16.394Z,34.42
2018-07-31T13:31:46.150Z,34.19
2018-07-31T13:34:15.943Z,34.68
2018-07-31T13:36:45.697Z,36.37
2018-07-31T13:39:15.431Z,36.10
2018-07-31T13:41:45.196Z,37.03
2018-07-31T13:44:15.145Z,37.33
2018-07-31T13:46:45.466Z,38.06
2018-07-31T13:49:15.209Z,37.77
2018-07-31T13:51:44.972Z,38.81
2018-07-31T13:54:14.671Z,38.59
2018-07-31T13:56:44.423Z,38.38
2018-07-31T13:59:14.131Z,37.83
2018-07-31T14:01:43.974Z,36.89
2018-07-31T14:04:13.728Z,35.53
2018-07-31T14:06:43.739Z,34.81
2018-07-31T14:09:13.497Z,34.16
2018-07-31T14:11:43.319Z,33.78
2018-07-31T14:14:13.182Z,33.61
2018-07-31T14:16:43.112Z,33.71
2018-07-31T14:19:12.869Z,34.17
2018-07-31T14:21:42.706Z,35.32
2018-07-31T14:24:12.778Z,34.78
2018-07-31T14:26:42.534Z,34.18
2018-07-31T14:29:12.350Z,35.13
2018-07-31T14:31:42.213Z,35.41
2018-07-31T14:34:12.111Z,36.90
2018-07-31T14:36:42.133Z,37.23
2018-07-31T14:39:12.341Z,37.96
2018-07-31T14:41:42.115Z,38.61
2018-07-31T14:44:12.054Z,38.27
2018-07-31T14:46:41.945Z,37.47
2018-07-31T14:49:12.008Z,38.08
2018-07-31T14:51:41.849Z,38.05
2018-07-31T14:54:11.650Z,38.01
2018-07-31T14:56:41.418Z,37.65
2018-07-31T14:59:11.314Z,37.33
2018-07-31T15:01:41.309Z,36.98
2018-07-31T15:04:11.182Z,36.87
2018-07-31T15:06:41.017Z,36.94
2018-07-31T15:09:11.653Z,37.10
2018-07-31T15:11:41.473Z,36.73
2018-07-31T15:14:11.302Z,36.68
2018-07-31T15:16:41.324Z,35.61
2018-07-31T15:19:12.067Z,34.78
2018-07-31T15:21:43.470Z,35.30
2018-07-31T15:24:13.208Z,34.28
2018-07-31T15:26:43.048Z,33.57
2018-07-31T15:29:12.913Z,33.94
2018-07-31T15:31:42.849Z,34.77
2018-07-31T15:34:12.801Z,35.52
2018-07-31T15:36:42.565Z,35.95
2018-07-31T15:39:13.889Z,36.21
2018-07-31T15:41:43.668Z,36.50
2018-07-31T15:44:13.794Z,36.17
2018-07-31T15:46:43.525Z,35.17
2018-07-31T15:49:13.274Z,35.66
2018-07-31T15:51:43.014Z,36.11
2018-07-31T15:54:12.975Z,36.36
2018-07-31T15:56:42.714Z,36.07
2018-07-31T15:59:12.540Z,36.41
2018-07-31T16:01:42.435Z,35.39
2018-07-31T16:04:12.345Z,34.28
2018-07-31T16:06:42.278Z,33.31
2018-07-31T16:09:12.619Z,33.35
2018-07-31T16:11:44.107Z,33.46
2018-07-31T16:14:13.945Z,32.98
2018-07-31T16:16:44.044Z,32.53
2018-07-31T16:19:13.417Z,32.53
2018-07-31T16:21:43.192Z,32.33
2018-07-31T16:24:13.009Z,33.85
2018-07-31T16:26:42.867Z,33.83
2018-07-31T16:29:12.954Z,33.49
2018-07-31T16:31:42.863Z,33.10
2018-07-31T16:34:12.701Z,32.80
2018-07-31T16:36:42.772Z,32.67
2018-07-31T16:39:12.682Z,33.19
2018-07-31T16:41:42.579Z,32.73
2018-07-31T16:44:12.419Z,32.15
2018-07-31T16:46:43.630Z,31.96
2018-07-31T16:49:13.485Z,31.80
2018-07-31T16:51:43.436Z,31.95
2018-07-31T16:54:13.182Z,31.95
2018-07-31T16:56:44.695Z,31.84
2018-07-31T16:59:14.691Z,31.84
2018-07-31T17:01:44.202Z,31.67
2018-07-31T17:04:14.460Z,31.67
2018-07-31T17:06:46.315Z,31.49
2018-07-31T17:09:16.035Z,31.39
2018-07-31T17:11:46.066Z,31.34
2018-07-31T17:14:15.997Z,31.13
2018-07-31T17:16:46.089Z,30.97
2018-07-31T17:19:16.200Z,30.98
2018-07-31T17:21:47.647Z,30.95
2018-07-31T17:24:17.558Z,30.98
2018-07-31T17:26:47.325Z,31.19
2018-07-31T17:29:17.097Z,31.16
2018-07-31T17:31:46.847Z,30.93
2018-07-31T17:34:16.604Z,30.70
2018-07-31T17:36:46.470Z,31.00
2018-07-31T17:39:16.170Z,30.95
2018-07-31T17:41:52.496Z,30.91
2018-07-31T17:44:22.390Z,30.83
2018-07-31T17:46:51.998Z,30.56
2018-07-31T17:49:21.731Z,30.54
2018-07-31T17:51:51.596Z,30.42
2018-07-31T17:54:21.902Z,30.48
2018-07-31T17:56:51.344Z,30.23
2018-07-31T17:59:21.145Z,29.95
2018-07-31T18:01:50.902Z,29.87
2018-07-31T18:04:20.813Z,29.71
2018-07-31T18:06:50.701Z,29.76
2018-07-31T18:09:20.377Z,29.69
2018-07-31T18:11:51.020Z,29.65
2018-07-31T18:14:20.994Z,29.64
2018-07-31T18:16:50.725Z,29.71
2018-07-31T18:19:20.742Z,29.61
2018-07-31T18:21:52.301Z,29.57
2018-07-31T18:24:22.119Z,29.34
2018-07-31T18:26:51.875Z,29.28
2018-07-31T18:29:21.742Z,28.94
2018-07-31T18:31:51.513Z,28.91
2018-07-31T18:34:21.340Z,29.01
2018-07-31T18:36:51.017Z,28.89
2018-07-31T18:39:20.758Z,28.83
2018-07-31T18:41:50.610Z,28.59
2018-07-31T18:44:20.515Z,28.40
2018-07-31T18:46:50.223Z,28.18
2018-07-31T18:49:20.418Z,27.92
2018-07-31T18:51:50.370Z,27.86
2018-07-31T18:54:20.068Z,27.98
2018-07-31T18:56:49.804Z,27.86
2018-07-31T18:59:19.611Z,27.83
2018-07-31T19:01:49.715Z,27.76
2018-07-31T19:04:19.460Z,27.76
2018-07-31T19:06:49.449Z,27.55
2018-07-31T19:09:19.125Z,27.36
2018-07-31T19:11:48.921Z,27.32
2018-07-31T19:14:18.706Z,27.23
2018-07-31T19:16:53.405Z,27.07
2018-07-31T19:19:23.242Z,27.00
2018-07-31T19:21:53.068Z,27.06
2018-07-31T19:24:22.767Z,26.90
2018-07-31T19:26:52.541Z,26.81
2018-07-31T19:29:22.375Z,26.73
2018-07-31T19:31:52.263Z,26.66
2018-07-31T19:34:22.183Z,26.48
2018-07-31T19:36:52.036Z,26.41
2018-07-31T19:39:21.738Z,26.51
2018-07-31T19:41:51.626Z,26.22
2018-07-31T19:44:21.365Z,25.98
2018-07-31T19:46:51.152Z,26.02
2018-07-31T19:49:20.997Z,25.79
2018-07-31T19:51:50.859Z,25.65
2018-07-31T19:54:20.624Z,25.66
2018-07-31T19:56:50.620Z,25.75
2018-07-31T19:59:20.454Z,25.50
2018-07-31T20:01:50.280Z,25.34
2018-07-31T20:04:19.666Z,25.26
2018-07-31T20:06:49.520Z,25.44
2018-07-31T20:09:26.936Z,25.50
2018-07-31T20:11:57.679Z,25.46
2018-07-31T20:14:27.591Z,25.38
2018-07-31T20:16:57.782Z,25.32
2018-07-31T20:19:27.566Z,25.25
2018-07-31T20:21:57.345Z,25.40
2018-07-31T20:24:27.304Z,25.34
2018-07-31T20:26:57.079Z,25.36
2018-07-31T20:29:26.822Z,25.55
2018-07-31T20:31:56.559Z,25.45
2018-07-31T20:34:26.541Z,25.26
2018-07-31T20:36:56.224Z,25.17
2018-07-31T20:39:26.043Z,25.10
2018-07-31T20:41:55.826Z,25.00
2018-07-31T20:44:25.229Z,25.01
2018-07-31T20:46:55.157Z,24.80
2018-07-31T20:49:24.965Z,24.90
2018-07-31T20:51:54.713Z,24.82
2018-07-31T20:54:24.492Z,24.81
2018-07-31T20:56:54.405Z,24.73
2018-07-31T20:59:24.143Z,24.60
2018-07-31T21:01:53.935Z,24.53
2018-07-31T21:04:24.004Z,24.40
2018-07-31T21:06:53.724Z,24.31
2018-07-31T21:09:23.541Z,24.40
2018-07-31T21:11:53.376Z,24.28
2018-07-31T21:14:23.082Z,24.23
2018-07-31T21:16:52.898Z,24.30
2018-07-31T21:19:22.581Z,24.34
2018-07-31T21:21:52.358Z,24.20
2018-07-31T21:24:22.688Z,24.20
2018-07-31T21:26:52.365Z,24.11
2018-07-31T21:29:22.185Z,24.03
2018-07-31T21:31:52.025Z,24.08
2018-07-31T21:34:21.732Z,24.02
2018-07-31T21:36:51.498Z,24.10
2018-07-31T21:39:21.623Z,24.06
2018-07-31T21:41:51.333Z,24.08
2018-07-31T21:44:21.073Z,23.86
2018-07-31T21:46:50.759Z,23.94
2018-07-31T21:49:20.393Z,23.96
2018-07-31T21:51:50.249Z,23.80
2018-07-31T21:54:19.954Z,23.75
2018-07-31T21:56:49.759Z,23.73
2018-07-31T21:59:19.423Z,23.80
2018-07-31T22:01:49.453Z,23.73
2018-07-31T22:04:19.337Z,23.64
2018-07-31T22:06:49.070Z,23.63
2018-07-31T22:09:22.912Z,23.39
2018-07-31T22:11:52.606Z,23.21
2018-07-31T22:14:22.598Z,23.22
2018-07-31T22:16:52.497Z,23.09
2018-07-31T22:19:22.223Z,22.98
2018-07-31T22:21:51.853Z,23.01
2018-07-31T22:24:21.606Z,22.97
2018-07-31T22:26:51.357Z,22.86
2018-07-31T22:29:21.082Z,22.89
2018-07-31T22:31:50.517Z,22.85
2018-07-31T22:34:20.593Z,22.91
2018-07-31T22:36:51.153Z,22.83
2018-07-31T22:39:20.797Z,22.64
2018-07-31T22:41:50.458Z,22.52
2018-07-31T22:44:20.115Z,22.58
2018-07-31T22:46:49.801Z,22.66
2018-07-31T22:49:19.579Z,22.61
2018-07-31T22:51:49.423Z,22.45
2018-07-31T22:54:18.894Z,22.61
2018-07-31T22:56:48.658Z,22.55
2018-07-31T22:59:18.449Z,22.72
2018-07-31T23:01:48.189Z,22.66
2018-07-31T23:04:17.888Z,22.52
2018-07-31T23:06:47.264Z,22.49
2018-07-31T23:09:16.967Z,22.35
2018-07-31T23:11:46.632Z,22.32
2018-07-31T23:14:16.366Z,22.34
2018-07-31T23:16:46.035Z,22.41
2018-07-31T23:19:15.788Z,22.33
2018-07-31T23:21:45.544Z,22.29
2018-07-31T23:24:15.178Z,22.26
2018-07-31T23:26:44.892Z,22.22
2018-07-31T23:29:14.781Z,22.37
2018-07-31T23:31:44.406Z,22.31
2018-07-31T23:34:14.307Z,22.32
2018-07-31T23:36:44.056Z,22.43
2018-07-31T23:39:13.795Z,22.40
2018-07-31T23:41:43.465Z,22.42
2018-07-31T23:44:13.109Z,22.38
2018-07-31T23:46:42.738Z,22.30
2018-07-31T23:49:12.528Z,22.33
2018-07-31T23:51:42.149Z,22.22
2018-07-31T23:54:11.839Z,22.29
2018-07-31T23:56:41.504Z,22.21
2018-07-31T23:59:11.216Z,22.13
